sensor_id;sensor_type;location;lat;lon;timestamp;temperature;humidity
4908;DHT22;2469;51.540;7.364;2022-09-09T00:01:03;22.30;90.40
4908;DHT22;2469;51.540;7.364;2022-09-09T00:03:41;22.00;90.80
4908;DHT22;2469;51.540;7.364;2022-09-09T00:06:21;22.00;90.90
4908;DHT22;2469;51.540;7.364;2022-09-09T00:09:01;21.80;91.30
4908;DHT22;2469;51.540;7.364;2022-09-09T00:11:38;21.60;91.70
4908;DHT22;2469;51.540;7.364;2022-09-09T00:14:13;21.40;92.00
4908;DHT22;2469;51.540;7.364;2022-09-09T00:16:49;21.50;92.10
4908;DHT22;2469;51.540;7.364;2022-09-09T00:19:23;21.50;91.90
4908;DHT22;2469;51.540;7.364;2022-09-09T00:22:00;21.50;92.10
4908;DHT22;2469;51.540;7.364;2022-09-09T00:24:40;21.60;91.80
4908;DHT22;2469;51.540;7.364;2022-09-09T00:27:19;21.80;91.70
4908;DHT22;2469;51.540;7.364;2022-09-09T00:29:53;22.00;91.30
4908;DHT22;2469;51.540;7.364;2022-09-09T00:32:22;22.20;91.20
4908;DHT22;2469;51.540;7.364;2022-09-09T00:34:56;22.40;91.00
4908;DHT22;2469;51.540;7.364;2022-09-09T00:37:25;22.40;90.90
4908;DHT22;2469;51.540;7.364;2022-09-09T00:39:58;22.30;90.50
4908;DHT22;2469;51.540;7.364;2022-09-09T00:42:36;21.90;91.30
4908;DHT22;2469;51.540;7.364;2022-09-09T00:45:19;21.70;91.20
4908;DHT22;2469;51.540;7.364;2022-09-09T00:47:52;21.80;91.50
4908;DHT22;2469;51.540;7.364;2022-09-09T00:50:35;21.70;91.50
4908;DHT22;2469;51.540;7.364;2022-09-09T00:53:17;21.70;91.30
4908;DHT22;2469;51.540;7.364;2022-09-09T00:55:51;21.70;91.50
4908;DHT22;2469;51.540;7.364;2022-09-09T00:58:23;21.80;91.70
4908;DHT22;2469;51.540;7.364;2022-09-09T01:00:57;21.80;91.30
4908;DHT22;2469;51.540;7.364;2022-09-09T01:03:34;21.80;91.10
4908;DHT22;2469;51.540;7.364;2022-09-09T01:06:15;21.60;91.40
4908;DHT22;2469;51.540;7.364;2022-09-09T01:09:07;21.50;91.60
4908;DHT22;2469;51.540;7.364;2022-09-09T01:11:49;21.30;91.80
4908;DHT22;2469;51.540;7.364;2022-09-09T01:14:32;21.20;92.40
4908;DHT22;2469;51.540;7.364;2022-09-09T01:17:07;21.00;92.40
4908;DHT22;2469;51.540;7.364;2022-09-09T01:19:45;21.00;92.30
4908;DHT22;2469;51.540;7.364;2022-09-09T01:22:25;20.90;92.50
4908;DHT22;2469;51.540;7.364;2022-09-09T01:25:16;21.00;92.50
4908;DHT22;2469;51.540;7.364;2022-09-09T01:27:48;21.00;92.50
4908;DHT22;2469;51.540;7.364;2022-09-09T01:30:18;21.00;92.40
4908;DHT22;2469;51.540;7.364;2022-09-09T01:32:48;21.20;92.50
4908;DHT22;2469;51.540;7.364;2022-09-09T01:35:27;21.30;92.40
4908;DHT22;2469;51.540;7.364;2022-09-09T01:37:57;21.60;92.20
4908;DHT22;2469;51.540;7.364;2022-09-09T01:40:25;21.80;91.80
4908;DHT22;2469;51.540;7.364;2022-09-09T01:42:55;21.70;91.50
4908;DHT22;2469;51.540;7.364;2022-09-09T01:45:24;21.50;91.60
4908;DHT22;2469;51.540;7.364;2022-09-09T01:47:52;21.20;92.30
4908;DHT22;2469;51.540;7.364;2022-09-09T01:50:21;21.00;92.40
4908;DHT22;2469;51.540;7.364;2022-09-09T01:52:50;20.80;92.80
4908;DHT22;2469;51.540;7.364;2022-09-09T01:55:23;20.60;92.80
4908;DHT22;2469;51.540;7.364;2022-09-09T01:58:06;20.20;93.30
4908;DHT22;2469;51.540;7.364;2022-09-09T02:00:41;19.90;94.10
4908;DHT22;2469;51.540;7.364;2022-09-09T02:03:20;19.80;94.30
4908;DHT22;2469;51.540;7.364;2022-09-09T02:05:53;19.90;94.40
4908;DHT22;2469;51.540;7.364;2022-09-09T02:08:26;19.80;94.50
4908;DHT22;2469;51.540;7.364;2022-09-09T02:11:01;19.50;95.00
4908;DHT22;2469;51.540;7.364;2022-09-09T02:13:32;19.40;95.60
4908;DHT22;2469;51.540;7.364;2022-09-09T02:16:06;19.40;95.80
4908;DHT22;2469;51.540;7.364;2022-09-09T02:18:38;19.50;95.70
4908;DHT22;2469;51.540;7.364;2022-09-09T02:21:08;19.60;95.80
4908;DHT22;2469;51.540;7.364;2022-09-09T02:23:39;19.60;95.50
4908;DHT22;2469;51.540;7.364;2022-09-09T02:26:09;19.70;95.30
4908;DHT22;2469;51.540;7.364;2022-09-09T02:28:40;19.60;95.30
4908;DHT22;2469;51.540;7.364;2022-09-09T02:31:08;19.60;95.40
4908;DHT22;2469;51.540;7.364;2022-09-09T02:33:40;19.60;95.20
4908;DHT22;2469;51.540;7.364;2022-09-09T02:36:10;19.70;95.20
4908;DHT22;2469;51.540;7.364;2022-09-09T02:38:42;19.60;95.30
4908;DHT22;2469;51.540;7.364;2022-09-09T02:41:12;19.90;95.20
4908;DHT22;2469;51.540;7.364;2022-09-09T02:43:42;20.10;94.80
4908;DHT22;2469;51.540;7.364;2022-09-09T02:46:23;20.30;94.40
4908;DHT22;2469;51.540;7.364;2022-09-09T02:49:00;20.30;94.10
4908;DHT22;2469;51.540;7.364;2022-09-09T02:51:35;20.30;94.10
4908;DHT22;2469;51.540;7.364;2022-09-09T02:54:10;20.10;94.30
4908;DHT22;2469;51.540;7.364;2022-09-09T02:56:48;20.10;94.50
4908;DHT22;2469;51.540;7.364;2022-09-09T02:59:18;20.20;94.30
4908;DHT22;2469;51.540;7.364;2022-09-09T03:01:46;20.00;94.60
4908;DHT22;2469;51.540;7.364;2022-09-09T03:04:14;20.00;94.60
4908;DHT22;2469;51.540;7.364;2022-09-09T03:06:42;19.90;94.70
4908;DHT22;2469;51.540;7.364;2022-09-09T03:09:10;19.80;95.00
4908;DHT22;2469;51.540;7.364;2022-09-09T03:11:38;19.80;95.20
4908;DHT22;2469;51.540;7.364;2022-09-09T03:14:06;19.90;95.00
4908;DHT22;2469;51.540;7.364;2022-09-09T03:16:36;19.70;95.00
4908;DHT22;2469;51.540;7.364;2022-09-09T03:19:04;19.70;95.20
4908;DHT22;2469;51.540;7.364;2022-09-09T03:21:32;19.60;95.40
4908;DHT22;2469;51.540;7.364;2022-09-09T03:24:01;19.60;95.30
4908;DHT22;2469;51.540;7.364;2022-09-09T03:26:29;19.60;95.40
4908;DHT22;2469;51.540;7.364;2022-09-09T03:28:58;19.70;95.30
4908;DHT22;2469;51.540;7.364;2022-09-09T03:31:27;19.70;95.20
4908;DHT22;2469;51.540;7.364;2022-09-09T03:33:58;19.60;95.10
4908;DHT22;2469;51.540;7.364;2022-09-09T03:36:26;19.50;95.40
4908;DHT22;2469;51.540;7.364;2022-09-09T03:38:55;19.30;95.80
4908;DHT22;2469;51.540;7.364;2022-09-09T03:41:23;19.20;96.10
4908;DHT22;2469;51.540;7.364;2022-09-09T03:43:51;19.20;96.10
4908;DHT22;2469;51.540;7.364;2022-09-09T03:46:19;19.20;96.10
4908;DHT22;2469;51.540;7.364;2022-09-09T03:48:47;19.20;96.00
4908;DHT22;2469;51.540;7.364;2022-09-09T03:51:16;19.30;95.80
4908;DHT22;2469;51.540;7.364;2022-09-09T03:53:45;19.20;95.90
4908;DHT22;2469;51.540;7.364;2022-09-09T03:56:13;19.20;96.30
4908;DHT22;2469;51.540;7.364;2022-09-09T03:58:41;19.20;95.80
4908;DHT22;2469;51.540;7.364;2022-09-09T04:01:10;19.20;95.80
4908;DHT22;2469;51.540;7.364;2022-09-09T04:03:40;19.20;96.10
4908;DHT22;2469;51.540;7.364;2022-09-09T04:06:10;19.20;95.70
4908;DHT22;2469;51.540;7.364;2022-09-09T04:08:41;19.10;95.80
4908;DHT22;2469;51.540;7.364;2022-09-09T04:11:09;19.00;96.00
4908;DHT22;2469;51.540;7.364;2022-09-09T04:13:38;18.90;96.20
4908;DHT22;2469;51.540;7.364;2022-09-09T04:16:07;18.90;96.40
4908;DHT22;2469;51.540;7.364;2022-09-09T04:18:37;18.90;96.20
4908;DHT22;2469;51.540;7.364;2022-09-09T04:21:05;19.00;96.50
4908;DHT22;2469;51.540;7.364;2022-09-09T04:23:34;19.00;96.30
4908;DHT22;2469;51.540;7.364;2022-09-09T04:26:04;19.00;96.30
4908;DHT22;2469;51.540;7.364;2022-09-09T04:28:33;18.90;96.30
4908;DHT22;2469;51.540;7.364;2022-09-09T04:31:06;18.90;97.00
4908;DHT22;2469;51.540;7.364;2022-09-09T04:33:34;18.70;96.90
4908;DHT22;2469;51.540;7.364;2022-09-09T04:36:07;18.70;97.20
4908;DHT22;2469;51.540;7.364;2022-09-09T04:38:35;18.60;97.30
4908;DHT22;2469;51.540;7.364;2022-09-09T04:41:05;18.60;97.60
4908;DHT22;2469;51.540;7.364;2022-09-09T04:43:33;18.50;97.80
4908;DHT22;2469;51.540;7.364;2022-09-09T04:46:01;18.60;97.90
4908;DHT22;2469;51.540;7.364;2022-09-09T04:48:29;18.60;97.80
4908;DHT22;2469;51.540;7.364;2022-09-09T04:50:58;18.60;97.90
4908;DHT22;2469;51.540;7.364;2022-09-09T04:53:26;18.60;97.70
4908;DHT22;2469;51.540;7.364;2022-09-09T04:56:02;18.70;97.70
4908;DHT22;2469;51.540;7.364;2022-09-09T04:58:31;18.80;97.40
4908;DHT22;2469;51.540;7.364;2022-09-09T05:01:07;18.80;97.30
4908;DHT22;2469;51.540;7.364;2022-09-09T05:03:35;18.60;97.80
4908;DHT22;2469;51.540;7.364;2022-09-09T05:06:05;18.60;97.40
4908;DHT22;2469;51.540;7.364;2022-09-09T05:08:35;18.60;97.50
4908;DHT22;2469;51.540;7.364;2022-09-09T05:11:03;18.50;97.50
4908;DHT22;2469;51.540;7.364;2022-09-09T05:13:33;18.40;97.60
4908;DHT22;2469;51.540;7.364;2022-09-09T05:16:06;18.30;97.70
4908;DHT22;2469;51.540;7.364;2022-09-09T05:18:38;18.30;97.90
4908;DHT22;2469;51.540;7.364;2022-09-09T05:21:06;18.30;98.10
4908;DHT22;2469;51.540;7.364;2022-09-09T05:23:34;18.20;98.30
4908;DHT22;2469;51.540;7.364;2022-09-09T05:26:03;18.20;98.60
4908;DHT22;2469;51.540;7.364;2022-09-09T05:28:33;18.30;98.60
4908;DHT22;2469;51.540;7.364;2022-09-09T05:31:04;18.30;98.60
4908;DHT22;2469;51.540;7.364;2022-09-09T05:33:32;18.30;98.70
4908;DHT22;2469;51.540;7.364;2022-09-09T05:36:02;18.30;98.90
4908;DHT22;2469;51.540;7.364;2022-09-09T05:38:31;18.20;99.10
4908;DHT22;2469;51.540;7.364;2022-09-09T05:41:00;18.20;99.40
4908;DHT22;2469;51.540;7.364;2022-09-09T05:43:29;18.30;99.30
4908;DHT22;2469;51.540;7.364;2022-09-09T05:46:01;18.30;99.30
4908;DHT22;2469;51.540;7.364;2022-09-09T05:48:31;18.70;98.50
4908;DHT22;2469;51.540;7.364;2022-09-09T05:51:00;19.20;97.70
4908;DHT22;2469;51.540;7.364;2022-09-09T05:53:29;19.40;97.10
4908;DHT22;2469;51.540;7.364;2022-09-09T05:56:01;19.70;96.60
4908;DHT22;2469;51.540;7.364;2022-09-09T05:58:30;19.80;96.00
4908;DHT22;2469;51.540;7.364;2022-09-09T06:01:04;20.00;95.90
4908;DHT22;2469;51.540;7.364;2022-09-09T06:03:33;20.10;95.70
4908;DHT22;2469;51.540;7.364;2022-09-09T06:06:03;20.10;95.40
4908;DHT22;2469;51.540;7.364;2022-09-09T06:08:33;20.20;95.30
4908;DHT22;2469;51.540;7.364;2022-09-09T06:11:02;20.50;95.00
4908;DHT22;2469;51.540;7.364;2022-09-09T06:13:30;20.80;95.20
4908;DHT22;2469;51.540;7.364;2022-09-09T06:15:59;20.70;95.10
4908;DHT22;2469;51.540;7.364;2022-09-09T06:18:28;20.70;95.40
4908;DHT22;2469;51.540;7.364;2022-09-09T06:20:57;20.80;95.40
4908;DHT22;2469;51.540;7.364;2022-09-09T06:23:25;20.80;95.20
4908;DHT22;2469;51.540;7.364;2022-09-09T06:26:02;20.80;95.20
4908;DHT22;2469;51.540;7.364;2022-09-09T06:28:32;20.90;94.90
4908;DHT22;2469;51.540;7.364;2022-09-09T06:31:00;21.00;94.60
4908;DHT22;2469;51.540;7.364;2022-09-09T06:33:33;21.00;94.50
4908;DHT22;2469;51.540;7.364;2022-09-09T06:36:02;21.00;94.50
4908;DHT22;2469;51.540;7.364;2022-09-09T06:38:30;21.00;94.50
4908;DHT22;2469;51.540;7.364;2022-09-09T06:40:59;21.00;94.80
4908;DHT22;2469;51.540;7.364;2022-09-09T06:43:28;21.00;94.20
4908;DHT22;2469;51.540;7.364;2022-09-09T06:45:57;21.10;94.20
4908;DHT22;2469;51.540;7.364;2022-09-09T06:48:26;21.20;94.00
4908;DHT22;2469;51.540;7.364;2022-09-09T06:51:03;21.00;94.20
4908;DHT22;2469;51.540;7.364;2022-09-09T06:53:31;21.10;94.80
4908;DHT22;2469;51.540;7.364;2022-09-09T06:56:00;21.10;94.70
4908;DHT22;2469;51.540;7.364;2022-09-09T06:58:29;21.10;95.70
4908;DHT22;2469;51.540;7.364;2022-09-09T07:01:06;21.20;95.50
4908;DHT22;2469;51.540;7.364;2022-09-09T07:03:34;21.30;95.30
4908;DHT22;2469;51.540;7.364;2022-09-09T07:06:05;21.40;94.90
4908;DHT22;2469;51.540;7.364;2022-09-09T07:08:34;21.40;94.70
4908;DHT22;2469;51.540;7.364;2022-09-09T07:11:03;21.30;95.20
4908;DHT22;2469;51.540;7.364;2022-09-09T07:13:38;21.30;94.80
4908;DHT22;2469;51.540;7.364;2022-09-09T07:16:06;21.40;94.80
4908;DHT22;2469;51.540;7.364;2022-09-09T07:18:35;21.40;94.60
4908;DHT22;2469;51.540;7.364;2022-09-09T07:21:05;21.50;94.40
4908;DHT22;2469;51.540;7.364;2022-09-09T07:23:33;21.50;94.30
4908;DHT22;2469;51.540;7.364;2022-09-09T07:26:06;21.50;94.30
4908;DHT22;2469;51.540;7.364;2022-09-09T07:28:35;21.60;94.30
4908;DHT22;2469;51.540;7.364;2022-09-09T07:31:04;21.70;94.00
4908;DHT22;2469;51.540;7.364;2022-09-09T07:33:34;21.80;93.60
4908;DHT22;2469;51.540;7.364;2022-09-09T07:36:06;21.80;93.50
4908;DHT22;2469;51.540;7.364;2022-09-09T07:38:38;21.80;93.70
4908;DHT22;2469;51.540;7.364;2022-09-09T07:41:08;21.70;93.90
4908;DHT22;2469;51.540;7.364;2022-09-09T07:43:38;21.80;94.50
4908;DHT22;2469;51.540;7.364;2022-09-09T07:46:08;21.90;94.80
4908;DHT22;2469;51.540;7.364;2022-09-09T07:48:36;21.70;95.10
4908;DHT22;2469;51.540;7.364;2022-09-09T07:51:11;21.60;95.20
4908;DHT22;2469;51.540;7.364;2022-09-09T07:53:43;21.80;95.20
4908;DHT22;2469;51.540;7.364;2022-09-09T07:56:13;21.80;95.30
4908;DHT22;2469;51.540;7.364;2022-09-09T07:58:41;21.90;95.30
4908;DHT22;2469;51.540;7.364;2022-09-09T08:01:11;21.90;94.90
4908;DHT22;2469;51.540;7.364;2022-09-09T08:03:39;21.90;95.00
4908;DHT22;2469;51.540;7.364;2022-09-09T08:06:09;21.90;94.90
4908;DHT22;2469;51.540;7.364;2022-09-09T08:08:37;21.90;94.50
4908;DHT22;2469;51.540;7.364;2022-09-09T08:11:09;22.00;95.00
4908;DHT22;2469;51.540;7.364;2022-09-09T08:13:38;21.90;95.30
4908;DHT22;2469;51.540;7.364;2022-09-09T08:16:08;22.00;95.30
4908;DHT22;2469;51.540;7.364;2022-09-09T08:18:36;21.80;95.00
4908;DHT22;2469;51.540;7.364;2022-09-09T08:21:11;21.70;94.50
4908;DHT22;2469;51.540;7.364;2022-09-09T08:23:40;21.70;94.70
4908;DHT22;2469;51.540;7.364;2022-09-09T08:26:11;21.60;94.60
4908;DHT22;2469;51.540;7.364;2022-09-09T08:28:40;21.60;94.90
4908;DHT22;2469;51.540;7.364;2022-09-09T08:31:10;21.50;94.70
4908;DHT22;2469;51.540;7.364;2022-09-09T08:33:40;21.50;94.60
4908;DHT22;2469;51.540;7.364;2022-09-09T08:36:11;21.60;94.40
4908;DHT22;2469;51.540;7.364;2022-09-09T08:38:42;21.80;94.40
4908;DHT22;2469;51.540;7.364;2022-09-09T08:41:31;21.90;94.40
4908;DHT22;2469;51.540;7.364;2022-09-09T08:44:06;22.10;94.20
4908;DHT22;2469;51.540;7.364;2022-09-09T08:46:42;22.20;93.70
4908;DHT22;2469;51.540;7.364;2022-09-09T08:49:25;22.30;94.10
4908;DHT22;2469;51.540;7.364;2022-09-09T08:52:00;22.30;93.90
4908;DHT22;2469;51.540;7.364;2022-09-09T08:54:33;22.40;94.20
4908;DHT22;2469;51.540;7.364;2022-09-09T08:57:21;22.50;94.10
4908;DHT22;2469;51.540;7.364;2022-09-09T08:59:55;22.60;93.70
4908;DHT22;2469;51.540;7.364;2022-09-09T09:02:26;22.70;93.60
4908;DHT22;2469;51.540;7.364;2022-09-09T09:05:05;22.70;93.70
4908;DHT22;2469;51.540;7.364;2022-09-09T09:07:49;22.70;93.50
4908;DHT22;2469;51.540;7.364;2022-09-09T09:10:30;22.80;93.20
4908;DHT22;2469;51.540;7.364;2022-09-09T09:13:13;22.70;93.40
4908;DHT22;2469;51.540;7.364;2022-09-09T09:15:44;22.70;93.50
4908;DHT22;2469;51.540;7.364;2022-09-09T09:18:15;22.80;93.20
4908;DHT22;2469;51.540;7.364;2022-09-09T09:20:50;22.80;93.10
4908;DHT22;2469;51.540;7.364;2022-09-09T09:23:24;22.90;93.00
4908;DHT22;2469;51.540;7.364;2022-09-09T09:25:56;22.90;93.00
4908;DHT22;2469;51.540;7.364;2022-09-09T09:28:29;22.90;92.80
4908;DHT22;2469;51.540;7.364;2022-09-09T09:31:01;23.00;92.70
4908;DHT22;2469;51.540;7.364;2022-09-09T09:33:35;22.90;92.30
4908;DHT22;2469;51.540;7.364;2022-09-09T09:36:05;22.90;92.70
4908;DHT22;2469;51.540;7.364;2022-09-09T09:38:36;23.00;92.60
4908;DHT22;2469;51.540;7.364;2022-09-09T09:41:31;23.00;92.40
4908;DHT22;2469;51.540;7.364;2022-09-09T09:44:01;23.00;92.30
4908;DHT22;2469;51.540;7.364;2022-09-09T09:46:29;23.10;92.20
4908;DHT22;2469;51.540;7.364;2022-09-09T09:48:59;23.10;92.30
4908;DHT22;2469;51.540;7.364;2022-09-09T09:51:29;23.10;92.10
4908;DHT22;2469;51.540;7.364;2022-09-09T09:54:14;23.10;92.20
4908;DHT22;2469;51.540;7.364;2022-09-09T09:56:43;23.10;92.10
4908;DHT22;2469;51.540;7.364;2022-09-09T09:59:31;23.20;91.90
4908;DHT22;2469;51.540;7.364;2022-09-09T10:02:19;23.20;91.70
4908;DHT22;2469;51.540;7.364;2022-09-09T10:04:47;23.20;91.80
4908;DHT22;2469;51.540;7.364;2022-09-09T10:07:18;23.20;91.60
4908;DHT22;2469;51.540;7.364;2022-09-09T10:09:52;23.30;91.70
4908;DHT22;2469;51.540;7.364;2022-09-09T10:12:28;23.30;91.50
4908;DHT22;2469;51.540;7.364;2022-09-09T10:15:03;23.30;91.40
4908;DHT22;2469;51.540;7.364;2022-09-09T10:17:40;23.30;91.20
4908;DHT22;2469;51.540;7.364;2022-09-09T10:20:20;23.40;90.80
4908;DHT22;2469;51.540;7.364;2022-09-09T10:22:52;23.40;91.30
4908;DHT22;2469;51.540;7.364;2022-09-09T10:28:45;23.40;91.30
4908;DHT22;2469;51.540;7.364;2022-09-09T10:31:23;23.40;91.10
4908;DHT22;2469;51.540;7.364;2022-09-09T10:34:00;23.50;91.00
4908;DHT22;2469;51.540;7.364;2022-09-09T10:36:35;23.50;90.70
4908;DHT22;2469;51.540;7.364;2022-09-09T10:39:17;23.60;90.90
4908;DHT22;2469;51.540;7.364;2022-09-09T10:41:51;23.60;90.60
4908;DHT22;2469;51.540;7.364;2022-09-09T10:44:56;23.60;90.50
4908;DHT22;2469;51.540;7.364;2022-09-09T10:47:43;23.60;90.60
4908;DHT22;2469;51.540;7.364;2022-09-09T10:50:39;23.70;90.60
4908;DHT22;2469;51.540;7.364;2022-09-09T10:53:36;23.80;90.50
4908;DHT22;2469;51.540;7.364;2022-09-09T10:56:08;23.80;90.40
4908;DHT22;2469;51.540;7.364;2022-09-09T10:58:42;23.70;89.10
4908;DHT22;2469;51.540;7.364;2022-09-09T11:01:18;23.40;86.20
4908;DHT22;2469;51.540;7.364;2022-09-09T11:03:57;23.20;86.60
4908;DHT22;2469;51.540;7.364;2022-09-09T11:06:31;23.10;87.20
4908;DHT22;2469;51.540;7.364;2022-09-09T11:09:01;23.00;85.30
4908;DHT22;2469;51.540;7.364;2022-09-09T11:11:33;22.80;82.90
4908;DHT22;2469;51.540;7.364;2022-09-09T11:14:11;22.70;83.20
4908;DHT22;2469;51.540;7.364;2022-09-09T11:16:47;22.70;83.90
4908;DHT22;2469;51.540;7.364;2022-09-09T11:19:21;22.70;83.00
4908;DHT22;2469;51.540;7.364;2022-09-09T11:21:53;22.70;83.50
4908;DHT22;2469;51.540;7.364;2022-09-09T11:24:25;22.70;81.60
4908;DHT22;2469;51.540;7.364;2022-09-09T11:26:58;22.70;81.50
4908;DHT22;2469;51.540;7.364;2022-09-09T11:29:56;22.70;81.40
4908;DHT22;2469;51.540;7.364;2022-09-09T11:32:51;22.70;81.60
4908;DHT22;2469;51.540;7.364;2022-09-09T11:35:32;22.50;82.40
4908;DHT22;2469;51.540;7.364;2022-09-09T11:38:18;22.70;83.30
4908;DHT22;2469;51.540;7.364;2022-09-09T11:40:55;22.60;83.00
4908;DHT22;2469;51.540;7.364;2022-09-09T11:43:29;22.70;83.30
4908;DHT22;2469;51.540;7.364;2022-09-09T11:45:59;22.80;83.70
4908;DHT22;2469;51.540;7.364;2022-09-09T11:48:33;22.80;83.20
4908;DHT22;2469;51.540;7.364;2022-09-09T11:51:04;22.70;82.70
4908;DHT22;2469;51.540;7.364;2022-09-09T11:53:48;22.70;82.80
4908;DHT22;2469;51.540;7.364;2022-09-09T11:56:25;22.70;83.00
4908;DHT22;2469;51.540;7.364;2022-09-09T11:58:56;22.70;82.20
4908;DHT22;2469;51.540;7.364;2022-09-09T12:01:34;22.70;82.30
4908;DHT22;2469;51.540;7.364;2022-09-09T12:04:34;22.70;81.90
4908;DHT22;2469;51.540;7.364;2022-09-09T12:07:20;22.70;82.50
4908;DHT22;2469;51.540;7.364;2022-09-09T12:09:51;22.70;83.60
4908;DHT22;2469;51.540;7.364;2022-09-09T12:12:28;22.70;82.60
4908;DHT22;2469;51.540;7.364;2022-09-09T12:14:59;22.70;81.60
4908;DHT22;2469;51.540;7.364;2022-09-09T12:17:28;22.60;80.90
4908;DHT22;2469;51.540;7.364;2022-09-09T12:20:06;22.60;81.40
4908;DHT22;2469;51.540;7.364;2022-09-09T12:22:44;22.50;80.90
4908;DHT22;2469;51.540;7.364;2022-09-09T12:25:21;22.40;81.40
4908;DHT22;2469;51.540;7.364;2022-09-09T12:28:01;22.40;82.00
4908;DHT22;2469;51.540;7.364;2022-09-09T12:30:35;22.40;83.60
4908;DHT22;2469;51.540;7.364;2022-09-09T12:33:11;22.30;83.80
4908;DHT22;2469;51.540;7.364;2022-09-09T12:35:43;22.30;84.60
4908;DHT22;2469;51.540;7.364;2022-09-09T12:38:14;22.30;85.20
4908;DHT22;2469;51.540;7.364;2022-09-09T12:40:54;22.30;85.50
4908;DHT22;2469;51.540;7.364;2022-09-09T12:43:23;22.30;86.00
4908;DHT22;2469;51.540;7.364;2022-09-09T12:45:55;22.30;86.60
4908;DHT22;2469;51.540;7.364;2022-09-09T12:48:30;22.30;88.20
4908;DHT22;2469;51.540;7.364;2022-09-09T12:51:00;22.50;89.10
4908;DHT22;2469;51.540;7.364;2022-09-09T12:53:31;22.80;88.40
4908;DHT22;2469;51.540;7.364;2022-09-09T12:56:03;23.10;87.80
4908;DHT22;2469;51.540;7.364;2022-09-09T12:58:33;23.30;87.10
4908;DHT22;2469;51.540;7.364;2022-09-09T13:01:03;23.40;86.60
4908;DHT22;2469;51.540;7.364;2022-09-09T13:03:32;23.40;86.90
4908;DHT22;2469;51.540;7.364;2022-09-09T13:06:12;23.60;86.40
4908;DHT22;2469;51.540;7.364;2022-09-09T13:08:41;23.70;85.60
4908;DHT22;2469;51.540;7.364;2022-09-09T13:11:12;23.90;85.50
4908;DHT22;2469;51.540;7.364;2022-09-09T13:13:42;23.90;85.30
4908;DHT22;2469;51.540;7.364;2022-09-09T13:16:20;23.80;85.60
4908;DHT22;2469;51.540;7.364;2022-09-09T13:18:49;23.80;85.70
4908;DHT22;2469;51.540;7.364;2022-09-09T13:21:20;23.90;85.80
4908;DHT22;2469;51.540;7.364;2022-09-09T13:23:58;24.00;85.60
4908;DHT22;2469;51.540;7.364;2022-09-09T13:26:29;24.00;85.30
4908;DHT22;2469;51.540;7.364;2022-09-09T13:29:14;24.20;85.10
4908;DHT22;2469;51.540;7.364;2022-09-09T13:31:45;24.30;84.80
4908;DHT22;2469;51.540;7.364;2022-09-09T13:34:14;24.30;84.50
4908;DHT22;2469;51.540;7.364;2022-09-09T13:36:58;24.40;84.50
4908;DHT22;2469;51.540;7.364;2022-09-09T13:39:28;24.30;84.20
4908;DHT22;2469;51.540;7.364;2022-09-09T13:41:56;24.20;84.50
4908;DHT22;2469;51.540;7.364;2022-09-09T13:44:27;24.30;84.60
4908;DHT22;2469;51.540;7.364;2022-09-09T13:47:03;24.40;84.10
4908;DHT22;2469;51.540;7.364;2022-09-09T13:49:36;24.40;84.60
4908;DHT22;2469;51.540;7.364;2022-09-09T13:52:09;24.50;84.50
4908;DHT22;2469;51.540;7.364;2022-09-09T13:54:38;24.50;84.20
4908;DHT22;2469;51.540;7.364;2022-09-09T13:57:15;24.40;84.20
4908;DHT22;2469;51.540;7.364;2022-09-09T13:59:44;24.40;84.40
4908;DHT22;2469;51.540;7.364;2022-09-09T14:02:31;24.50;84.30
4908;DHT22;2469;51.540;7.364;2022-09-09T14:05:00;24.60;84.10
4908;DHT22;2469;51.540;7.364;2022-09-09T14:07:29;24.60;83.80
4908;DHT22;2469;51.540;7.364;2022-09-09T14:09:58;24.60;83.80
4908;DHT22;2469;51.540;7.364;2022-09-09T14:12:27;24.50;84.20
4908;DHT22;2469;51.540;7.364;2022-09-09T14:14:55;24.50;84.00
4908;DHT22;2469;51.540;7.364;2022-09-09T14:17:23;24.50;84.00
4908;DHT22;2469;51.540;7.364;2022-09-09T14:19:51;24.50;84.00
4908;DHT22;2469;51.540;7.364;2022-09-09T14:22:19;24.50;84.20
4908;DHT22;2469;51.540;7.364;2022-09-09T14:24:49;24.50;84.10
4908;DHT22;2469;51.540;7.364;2022-09-09T14:27:17;24.50;84.20
4908;DHT22;2469;51.540;7.364;2022-09-09T14:29:46;24.60;84.20
4908;DHT22;2469;51.540;7.364;2022-09-09T14:32:14;24.60;84.10
4908;DHT22;2469;51.540;7.364;2022-09-09T14:34:43;24.50;84.30
4908;DHT22;2469;51.540;7.364;2022-09-09T14:37:11;24.40;86.50
4908;DHT22;2469;51.540;7.364;2022-09-09T14:39:39;24.30;84.90
4908;DHT22;2469;51.540;7.364;2022-09-09T14:42:11;24.30;85.60
4908;DHT22;2469;51.540;7.364;2022-09-09T14:44:39;24.50;85.20
4908;DHT22;2469;51.540;7.364;2022-09-09T14:47:08;24.50;84.90
4908;DHT22;2469;51.540;7.364;2022-09-09T14:49:37;24.60;84.60
4908;DHT22;2469;51.540;7.364;2022-09-09T14:52:09;24.60;84.40
4908;DHT22;2469;51.540;7.364;2022-09-09T14:54:37;24.50;84.20
4908;DHT22;2469;51.540;7.364;2022-09-09T14:57:05;24.30;84.70
4908;DHT22;2469;51.540;7.364;2022-09-09T14:59:34;24.00;85.70
4908;DHT22;2469;51.540;7.364;2022-09-09T15:02:02;24.10;85.90
4908;DHT22;2469;51.540;7.364;2022-09-09T15:04:31;24.20;85.90
4908;DHT22;2469;51.540;7.364;2022-09-09T15:06:59;24.40;85.50
4908;DHT22;2469;51.540;7.364;2022-09-09T15:09:27;24.50;85.00
4908;DHT22;2469;51.540;7.364;2022-09-09T15:11:55;24.60;85.30
4908;DHT22;2469;51.540;7.364;2022-09-09T15:14:23;24.70;84.30
4908;DHT22;2469;51.540;7.364;2022-09-09T15:16:53;24.70;84.50
4908;DHT22;2469;51.540;7.364;2022-09-09T15:19:21;24.40;85.00
4908;DHT22;2469;51.540;7.364;2022-09-09T15:21:49;24.50;84.80
4908;DHT22;2469;51.540;7.364;2022-09-09T15:24:18;24.50;84.60
4908;DHT22;2469;51.540;7.364;2022-09-09T15:26:46;24.30;85.40
4908;DHT22;2469;51.540;7.364;2022-09-09T15:29:14;24.10;88.80
4908;DHT22;2469;51.540;7.364;2022-09-09T15:31:42;24.00;86.80
4908;DHT22;2469;51.540;7.364;2022-09-09T15:34:11;23.90;88.50
4908;DHT22;2469;51.540;7.364;2022-09-09T15:36:41;24.00;86.70
4908;DHT22;2469;51.540;7.364;2022-09-09T15:39:12;24.20;86.30
4908;DHT22;2469;51.540;7.364;2022-09-09T15:41:42;24.50;85.90
4908;DHT22;2469;51.540;7.364;2022-09-09T15:44:11;24.60;85.10
4908;DHT22;2469;51.540;7.364;2022-09-09T15:46:40;24.60;85.10
4908;DHT22;2469;51.540;7.364;2022-09-09T15:49:11;24.60;84.90
4908;DHT22;2469;51.540;7.364;2022-09-09T15:51:41;24.60;84.80
4908;DHT22;2469;51.540;7.364;2022-09-09T15:54:12;24.60;84.60
4908;DHT22;2469;51.540;7.364;2022-09-09T15:56:41;24.60;84.70
4908;DHT22;2469;51.540;7.364;2022-09-09T15:59:09;24.60;84.60
4908;DHT22;2469;51.540;7.364;2022-09-09T16:01:38;24.60;84.60
4908;DHT22;2469;51.540;7.364;2022-09-09T16:04:07;24.50;84.50
4908;DHT22;2469;51.540;7.364;2022-09-09T16:06:36;24.40;84.60
4908;DHT22;2469;51.540;7.364;2022-09-09T16:09:06;24.30;85.20
4908;DHT22;2469;51.540;7.364;2022-09-09T16:11:36;24.20;85.10
4908;DHT22;2469;51.540;7.364;2022-09-09T16:14:05;24.00;84.60
4908;DHT22;2469;51.540;7.364;2022-09-09T16:16:34;23.90;86.20
4908;DHT22;2469;51.540;7.364;2022-09-09T16:19:05;23.80;86.10
4908;DHT22;2469;51.540;7.364;2022-09-09T16:21:35;23.70;86.50
4908;DHT22;2469;51.540;7.364;2022-09-09T16:24:08;23.60;87.00
4908;DHT22;2469;51.540;7.364;2022-09-09T16:26:38;23.50;87.10
4908;DHT22;2469;51.540;7.364;2022-09-09T16:29:06;23.40;87.30
4908;DHT22;2469;51.540;7.364;2022-09-09T16:31:35;23.60;87.40
4908;DHT22;2469;51.540;7.364;2022-09-09T16:34:04;23.40;87.30
4908;DHT22;2469;51.540;7.364;2022-09-09T16:36:33;23.20;88.70
4908;DHT22;2469;51.540;7.364;2022-09-09T16:39:05;23.10;90.00